Time;durP1;ratioP1;P1;durP2;ratioP2;P2;SDS_P1;SDS_P2;PMS_P1;PMS_P2;Temp;Humidity;BMP_temperature;BMP_pressure;BME280_temperature;BME280_humidity;BME280_pressure;Samples;Min_cycle;Max_cycle;Signal;HPM_P1;HPM_P2
2022/06/12 00:00:59;;;;;;;12.40;4.20;;;;;;;;;;5250901;28;20486;-72
2022/06/12 00:03:32;;;;;;;15.10;4.80;;;;;;;;;;5250930;28;20021;-72
2022/06/12 00:06:03;;;;;;;12.37;5.73;;;;;;;;;;5251305;28;20426;-72
2022/06/12 00:08:36;;;;;;;11.40;5.10;;;;;;;;;;5248451;28;20103;-71
2022/06/12 00:11:09;;;;;;;14.47;5.37;;;;;;;;;;5249736;28;20633;-70
2022/06/12 00:13:48;;;;;;;14.70;5.77;;;;;;;;;;5250462;28;20048;-70
2022/06/12 00:16:20;;;;;;;13.50;5.00;;;;;;;;;;5249370;28;20036;-71
2022/06/12 00:18:52;;;;;;;10.77;4.87;;;;;;;;;;5250029;28;20563;-70
2022/06/12 00:21:24;;;;;;;11.07;4.50;;;;;;;;;;5250358;28;20044;-70
2022/06/12 00:24:00;;;;;;;14.93;5.47;;;;;;;;;;5249252;28;20028;-71
2022/06/12 00:26:43;;;;;;;14.93;5.87;;;;;;;;;;5242205;28;20032;-70
2022/06/12 00:29:17;;;;;;;12.20;4.23;;;;;;;;;;5250667;28;20192;-70
2022/06/12 00:31:51;;;;;;;14.57;5.32;;;;;;;;;;5250634;28;20493;-70
2022/06/12 00:34:23;;;;;;;15.55;4.25;;;;;;;;;;5249971;28;20059;-71
2022/06/12 00:36:54;;;;;;;9.60;3.73;;;;;;;;;;5248549;28;20466;-72
2022/06/12 00:39:26;;;;;;;16.33;4.83;;;;;;;;;;5249493;28;20025;-71
2022/06/12 00:41:58;;;;;;;11.60;3.57;;;;;;;;;;5248160;28;20033;-71
2022/06/12 00:44:31;;;;;;;12.93;4.40;;;;;;;;;;5248878;28;20491;-70
2022/06/12 00:47:05;;;;;;;16.70;4.40;;;;;;;;;;5248811;28;20044;-71
2022/06/12 00:49:42;;;;;;;9.88;4.13;;;;;;;;;;5250107;28;20031;-71
2022/06/12 00:52:15;;;;;;;10.70;3.97;;;;;;;;;;5248805;28;20112;-71
2022/06/12 00:54:49;;;;;;;12.40;3.87;;;;;;;;;;5252229;28;20052;-71
2022/06/12 00:57:21;;;;;;;13.32;4.13;;;;;;;;;;5253285;28;20032;-70
2022/06/12 00:59:54;;;;;;;12.23;3.60;;;;;;;;;;5254228;28;20553;-70
2022/06/12 01:02:27;;;;;;;18.73;4.43;;;;;;;;;;5251970;28;20107;-71
2022/06/12 01:07:51;;;;;;;11.17;4.50;;;;;;;;;;5243734;28;20719;-70
2022/06/12 01:10:25;;;;;;;9.13;3.50;;;;;;;;;;5232831;22;20056;-71
2022/06/12 01:12:58;;;;;;;16.60;3.78;;;;;;;;;;5223859;28;20017;-71
2022/06/12 01:15:32;;;;;;;11.20;3.77;;;;;;;;;;5210864;28;20021;-71
2022/06/12 01:18:05;;;;;;;12.10;3.60;;;;;;;;;;5207487;28;20278;-70
2022/06/12 01:20:41;;;;;;;12.98;3.60;;;;;;;;;;5203954;28;20364;-70
2022/06/12 01:23:38;;;;;;;9.20;3.27;;;;;;;;;;5207239;28;20116;-70
2022/06/12 01:26:13;;;;;;;12.00;3.60;;;;;;;;;;5207096;28;20022;-70
2022/06/12 01:28:53;;;;;;;15.57;4.60;;;;;;;;;;5202609;28;20658;-71
2022/06/12 01:31:30;;;;;;;12.40;4.60;;;;;;;;;;5211335;28;20026;-71
2022/06/12 01:34:18;;;;;;;9.90;3.67;;;;;;;;;;5209006;28;20484;-71
2022/06/12 01:37:08;;;;;;;10.37;3.33;;;;;;;;;;5204519;28;20026;-70
2022/06/12 01:39:43;;;;;;;9.80;3.43;;;;;;;;;;5198863;28;20029;-71
2022/06/12 01:42:36;;;;;;;10.17;2.83;;;;;;;;;;5212151;28;20731;-70
2022/06/12 01:45:30;;;;;;;17.73;5.07;;;;;;;;;;5207807;28;20038;-71
2022/06/12 01:48:06;;;;;;;15.15;4.07;;;;;;;;;;5208708;28;20052;-71
2022/06/12 01:50:46;;;;;;;12.27;4.23;;;;;;;;;;5205585;28;20607;-70
2022/06/12 01:53:17;;;;;;;12.13;3.90;;;;;;;;;;5211679;28;20104;-70
2022/06/12 01:55:52;;;;;;;14.00;3.90;;;;;;;;;;5199814;28;20465;-70
2022/06/12 01:58:30;;;;;;;10.67;3.60;;;;;;;;;;5203449;28;20026;-70
2022/06/12 02:01:05;;;;;;;13.20;3.40;;;;;;;;;;5211442;28;20033;-70
2022/06/12 02:03:43;;;;;;;16.57;4.40;;;;;;;;;;5212421;28;20481;-70
2022/06/12 02:06:18;;;;;;;13.37;3.47;;;;;;;;;;5211282;28;20618;-70
2022/06/12 02:08:58;;;;;;;11.63;3.93;;;;;;;;;;5210063;28;20412;-70
2022/06/12 02:14:34;;;;;;;12.13;3.63;;;;;;;;;;5212065;28;20034;-70
2022/06/12 02:17:08;;;;;;;10.23;3.93;;;;;;;;;;5198536;28;20021;-70
2022/06/12 02:19:39;;;;;;;;;;;;;;;;;;5206390;28;20074;-70
2022/06/12 02:22:17;;;;;;;8.88;3.85;;;;;;;;;;5211352;28;20029;-70
2022/06/12 02:25:05;;;;;;;11.73;3.63;;;;;;;;;;5205814;28;20569;-71
2022/06/12 02:27:57;;;;;;;11.63;3.90;;;;;;;;;;5201153;28;20370;-70
2022/06/12 02:30:33;;;;;;;13.33;3.83;;;;;;;;;;5211077;28;20432;-71
2022/06/12 02:33:08;;;;;;;7.63;3.10;;;;;;;;;;5210718;28;20108;-71
2022/06/12 02:35:39;;;;;;;13.23;4.70;;;;;;;;;;5210931;28;20074;-70
2022/06/12 02:38:18;;;;;;;12.33;3.53;;;;;;;;;;5210960;28;20144;-71
2022/06/12 02:40:53;;;;;;;14.00;4.13;;;;;;;;;;5201079;28;20041;-70
2022/06/12 02:43:27;;;;;;;9.50;3.53;;;;;;;;;;5210692;28;20114;-71
2022/06/12 02:46:01;;;;;;;14.30;3.75;;;;;;;;;;5203680;28;20040;-70
2022/06/12 02:48:32;;;;;;;13.83;4.90;;;;;;;;;;5203181;28;20025;-71
2022/06/12 02:51:03;;;;;;;14.77;3.70;;;;;;;;;;5210805;28;20109;-70
2022/06/12 02:53:34;;;;;;;11.00;3.97;;;;;;;;;;5207151;28;20028;-70
2022/06/12 02:56:11;;;;;;;9.98;3.30;;;;;;;;;;5205684;28;20380;-71
2022/06/12 02:58:57;;;;;;;11.13;4.43;;;;;;;;;;5205940;28;20045;-71
2022/06/12 03:01:32;;;;;;;12.33;3.60;;;;;;;;;;5198404;28;20068;-70
2022/06/12 03:04:14;;;;;;;16.43;4.23;;;;;;;;;;5210106;28;20049;-70
2022/06/12 03:06:46;;;;;;;10.37;4.43;;;;;;;;;;5201964;28;20032;-70
2022/06/12 03:09:18;;;;;;;10.13;3.27;;;;;;;;;;5210242;28;20054;-70
2022/06/12 03:11:49;;;;;;;9.70;3.10;;;;;;;;;;5208610;28;20468;-70
2022/06/12 03:14:21;;;;;;;11.13;3.73;;;;;;;;;;5206159;28;20029;-69
2022/06/12 03:16:53;;;;;;;10.93;4.17;;;;;;;;;;5204073;28;20041;-70
2022/06/12 03:19:25;;;;;;;11.97;3.27;;;;;;;;;;5202757;28;20037;-71
2022/06/12 03:21:59;;;;;;;14.27;4.07;;;;;;;;;;5207943;28;20456;-70
2022/06/12 03:24:43;;;;;;;11.27;4.18;;;;;;;;;;5209490;28;20025;-70
2022/06/12 03:27:30;;;;;;;16.80;4.37;;;;;;;;;;5196901;28;20100;-70
2022/06/12 03:30:04;;;;;;;13.50;4.10;;;;;;;;;;5203386;28;20021;-70
2022/06/12 03:32:47;;;;;;;12.07;4.32;;;;;;;;;;5209750;28;20101;-70
2022/06/12 03:35:25;;;;;;;15.83;4.70;;;;;;;;;;5208974;28;20523;-70
2022/06/12 03:37:56;;;;;;;15.07;4.80;;;;;;;;;;5209692;28;20021;-70
2022/06/12 03:40:45;;;;;;;14.93;4.77;;;;;;;;;;5205886;28;20028;-69
2022/06/12 03:43:20;;;;;;;15.43;4.43;;;;;;;;;;5209244;28;20033;-70
2022/06/12 03:46:00;;;;;;;12.07;5.00;;;;;;;;;;5207722;28;20140;-70
2022/06/12 03:48:42;;;;;;;11.67;4.47;;;;;;;;;;5203840;28;20565;-70
2022/06/12 03:51:34;;;;;;;14.33;4.57;;;;;;;;;;5178978;28;20536;-70
2022/06/12 03:54:05;;;;;;;11.47;4.63;;;;;;;;;;5208150;28;20767;-70
2022/06/12 03:59:41;;;;;;;12.70;5.27;;;;;;;;;;5203483;28;20614;-70
2022/06/12 04:02:14;;;;;;;12.00;4.53;;;;;;;;;;5202618;28;20034;-70
2022/06/12 04:04:47;;;;;;;12.10;4.70;;;;;;;;;;5210243;28;20380;-70
2022/06/12 04:07:20;;;;;;;11.13;3.80;;;;;;;;;;5198325;28;20388;-70
2022/06/12 04:09:53;;;;;;;9.47;4.03;;;;;;;;;;5206634;28;20505;-70
2022/06/12 04:12:26;;;;;;;12.50;4.60;;;;;;;;;;5208337;28;20029;-71
2022/06/12 04:14:57;;;;;;;13.53;5.70;;;;;;;;;;5209955;28;20020;-70
2022/06/12 04:17:28;;;;;;;10.23;4.57;;;;;;;;;;5202479;28;20022;-71
2022/06/12 04:19:59;;;;;;;9.97;4.13;;;;;;;;;;5195048;28;20536;-70
2022/06/12 04:22:37;;;;;;;9.77;4.00;;;;;;;;;;5213375;28;20033;-70
2022/06/12 04:25:28;;;;;;;11.43;4.53;;;;;;;;;;5209547;28;20531;-70
2022/06/12 04:28:00;;;;;;;14.00;4.50;;;;;;;;;;5202471;28;20037;-70
2022/06/12 04:30:33;;;;;;;8.77;3.60;;;;;;;;;;5212858;28;20473;-71
2022/06/12 04:33:14;;;;;;;19.43;6.97;;;;;;;;;;5213477;28;20419;-70
2022/06/12 04:35:51;;;;;;;11.43;4.43;;;;;;;;;;5213757;28;20104;-71
2022/06/12 04:38:22;;;;;;;13.60;4.53;;;;;;;;;;5206489;28;20018;-70
2022/06/12 04:40:54;;;;;;;11.30;4.23;;;;;;;;;;5211940;28;20413;-70
2022/06/12 04:43:25;;;;;;;12.30;3.87;;;;;;;;;;5205353;28;20034;-70
2022/06/12 04:45:57;;;;;;;9.60;3.93;;;;;;;;;;5202874;28;20017;-70
2022/06/12 04:48:40;;;;;;;9.03;3.53;;;;;;;;;;5213385;28;20064;-70
2022/06/12 04:51:12;;;;;;;11.13;3.67;;;;;;;;;;5211581;28;20484;-70
2022/06/12 04:53:44;;;;;;;10.03;4.17;;;;;;;;;;5212706;28;20026;-70
2022/06/12 04:56:16;;;;;;;16.07;5.13;;;;;;;;;;5209579;28;20049;-70
2022/06/12 04:58:47;;;;;;;11.10;3.97;;;;;;;;;;5213551;28;20030;-70
2022/06/12 05:01:19;;;;;;;13.07;4.90;;;;;;;;;;5210581;28;20038;-70
2022/06/12 05:03:51;;;;;;;11.70;4.57;;;;;;;;;;5212843;28;20048;-70
2022/06/12 05:06:22;;;;;;;9.80;4.23;;;;;;;;;;5202621;28;20034;-70
2022/06/12 05:08:53;;;;;;;11.47;4.03;;;;;;;;;;5213112;28;20046;-70
2022/06/12 05:11:25;;;;;;;10.77;3.90;;;;;;;;;;5209628;28;20033;-72
2022/06/12 05:13:56;;;;;;;15.17;3.90;;;;;;;;;;5212500;28;20040;-70
2022/06/12 05:16:32;;;;;;;14.77;4.63;;;;;;;;;;5212431;28;20779;-70
2022/06/12 05:19:05;;;;;;;13.27;4.80;;;;;;;;;;5207294;28;20030;-69
2022/06/12 05:21:36;;;;;;;12.77;4.70;;;;;;;;;;5208030;28;20388;-70
2022/06/12 05:24:08;;;;;;;15.77;5.40;;;;;;;;;;5211753;28;20064;-70
2022/06/12 05:26:41;;;;;;;18.97;4.80;;;;;;;;;;5208840;28;20048;-71
2022/06/12 05:29:19;;;;;;;15.97;4.67;;;;;;;;;;5213112;28;20026;-70
2022/06/12 05:31:51;;;;;;;15.17;4.87;;;;;;;;;;5211612;28;20543;-70
2022/06/12 05:34:25;;;;;;;11.00;4.73;;;;;;;;;;5211858;28;20025;-70
2022/06/12 05:36:57;;;;;;;12.90;4.28;;;;;;;;;;5208842;28;20022;-70
2022/06/12 05:39:28;;;;;;;12.67;4.33;;;;;;;;;;5209696;28;20736;-70
2022/06/12 05:41:59;;;;;;;13.70;5.20;;;;;;;;;;5203752;28;20124;-70
2022/06/12 05:44:30;;;;;;;24.80;6.53;;;;;;;;;;5208719;28;20365;-70
2022/06/12 05:47:02;;;;;;;17.70;4.60;;;;;;;;;;5207865;28;20080;-70
2022/06/12 05:49:33;;;;;;;18.07;5.67;;;;;;;;;;5212251;28;20038;-70
2022/06/12 05:52:04;;;;;;;18.07;5.47;;;;;;;;;;5212181;28;20030;-70
2022/06/12 05:54:36;;;;;;;12.03;4.80;;;;;;;;;;5208851;28;20018;-70
2022/06/12 05:57:07;;;;;;;15.57;5.27;;;;;;;;;;5208442;28;20025;-70
2022/06/12 05:59:38;;;;;;;15.87;5.50;;;;;;;;;;5211782;28;20002;-70
2022/06/12 06:02:10;;;;;;;20.50;5.53;;;;;;;;;;5205922;28;20607;-70
2022/06/12 06:04:41;;;;;;;18.87;5.00;;;;;;;;;;5203502;28;20037;-70
2022/06/12 06:07:12;;;;;;;22.07;5.17;;;;;;;;;;5202814;28;20037;-70
2022/06/12 06:09:44;;;;;;;17.20;5.60;;;;;;;;;;5208955;28;20623;-70
2022/06/12 06:12:15;;;;;;;17.17;5.30;;;;;;;;;;5201793;28;20382;-70
2022/06/12 06:14:46;;;;;;;19.73;5.70;;;;;;;;;;5208473;28;20080;-70
2022/06/12 06:17:17;;;;;;;14.23;4.40;;;;;;;;;;5204284;28;20022;-70
2022/06/12 06:19:49;;;;;;;19.13;4.90;;;;;;;;;;5195422;28;20033;-70
2022/06/12 06:22:20;;;;;;;21.00;5.60;;;;;;;;;;5215273;28;20504;-70
2022/06/12 06:24:51;;;;;;;23.93;5.57;;;;;;;;;;5211181;28;20026;-70
2022/06/12 06:27:23;;;;;;;19.60;5.83;;;;;;;;;;5210442;28;20034;-71
2022/06/12 06:29:54;;;;;;;17.37;5.40;;;;;;;;;;5211910;28;20014;-71
2022/06/12 06:32:25;;;;;;;23.40;5.93;;;;;;;;;;5205915;28;20089;-71
2022/06/12 06:34:56;;;;;;;27.87;6.47;;;;;;;;;;5199447;28;20419;-70
2022/06/12 06:37:27;;;;;;;26.17;7.03;;;;;;;;;;5203683;28;20037;-70
2022/06/12 06:39:59;;;;;;;20.13;5.37;;;;;;;;;;5209926;28;20029;-70
2022/06/12 06:42:30;;;;;;;22.47;5.80;;;;;;;;;;5208510;28;20107;-70
2022/06/12 06:47:51;;;;;;;21.47;6.27;;;;;;;;;;5210876;28;20492;-70
2022/06/12 06:50:22;;;;;;;22.43;6.83;;;;;;;;;;5209836;28;20018;-70
2022/06/12 06:52:54;;;;;;;18.63;6.07;;;;;;;;;;5209156;28;20013;-69
2022/06/12 06:55:26;;;;;;;25.50;7.43;;;;;;;;;;5210624;28;20106;-69
2022/06/12 06:57:57;;;;;;;18.33;6.40;;;;;;;;;;5206705;28;20022;-69
2022/06/12 07:00:30;;;;;;;18.60;5.70;;;;;;;;;;5207136;28;20060;-69
2022/06/12 07:03:02;;;;;;;21.73;8.27;;;;;;;;;;5204139;28;20034;-69
2022/06/12 07:05:34;;;;;;;25.70;7.13;;;;;;;;;;5206210;28;20049;-69
2022/06/12 07:08:05;;;;;;;26.50;6.87;;;;;;;;;;5208943;28;20397;-69
2022/06/12 07:10:36;;;;;;;21.43;5.73;;;;;;;;;;5204706;28;20400;-69
2022/06/12 07:13:08;;;;;;;21.43;6.10;;;;;;;;;;5202104;28;20037;-70
2022/06/12 07:15:39;;;;;;;17.73;5.43;;;;;;;;;;5210288;28;20058;-69
2022/06/12 07:18:11;;;;;;;20.73;5.77;;;;;;;;;;5197446;28;20057;-69
2022/06/12 07:20:48;;;;;;;26.20;6.20;;;;;;;;;;5210415;28;20017;-69
2022/06/12 07:23:20;;;;;;;21.53;5.73;;;;;;;;;;5208984;28;20500;-69
2022/06/12 07:25:54;;;;;;;18.40;4.87;;;;;;;;;;5209730;28;20109;-69
2022/06/12 07:28:26;;;;;;;13.30;4.22;;;;;;;;;;5210722;28;20013;-70
2022/06/12 07:30:57;;;;;;;21.67;5.40;;;;;;;;;;5210076;28;20029;-69
2022/06/12 07:33:29;;;;;;;20.77;6.40;;;;;;;;;;5210923;28;20025;-69
2022/06/12 07:36:00;;;;;;;23.93;6.90;;;;;;;;;;5210241;28;20092;-69
2022/06/12 07:38:32;;;;;;;18.43;5.17;;;;;;;;;;5209119;28;20630;-69
2022/06/12 07:41:04;;;;;;;21.47;5.27;;;;;;;;;;5207502;28;20073;-69
2022/06/12 07:43:35;;;;;;;18.13;5.57;;;;;;;;;;5201946;28;20117;-69
2022/06/12 07:46:09;;;;;;;23.33;6.07;;;;;;;;;;5210257;28;20699;-70
2022/06/12 07:48:40;;;;;;;15.05;5.57;;;;;;;;;;5209824;28;20029;-70
2022/06/12 07:51:13;;;;;;;19.10;4.65;;;;;;;;;;5192737;28;20014;-69
2022/06/12 07:53:45;;;;;;;19.35;4.72;;;;;;;;;;5188987;28;20112;-69
2022/06/12 07:56:18;;;;;;;23.35;6.13;;;;;;;;;;5192359;28;20041;-69
2022/06/12 07:58:49;;;;;;;13.02;5.20;;;;;;;;;;5207324;28;20015;-69
2022/06/12 08:01:22;;;;;;;13.07;4.35;;;;;;;;;;5196029;28;20023;-69
2022/06/12 08:03:54;;;;;;;14.18;4.70;;;;;;;;;;5217245;28;20038;-69
2022/06/12 08:06:26;;;;;;;18.67;5.60;;;;;;;;;;5209435;28;20131;-70
2022/06/12 08:08:57;;;;;;;17.58;5.53;;;;;;;;;;5190911;28;20505;-70
2022/06/12 08:11:29;;;;;;;15.90;6.22;;;;;;;;;;5197606;28;20033;-69
2022/06/12 08:14:01;;;;;;;18.05;5.25;;;;;;;;;;5195772;28;20015;-70
2022/06/12 08:16:33;;;;;;;15.00;4.82;;;;;;;;;;5195432;28;20101;-70
2022/06/12 08:20:24;;;;;;;17.55;4.93;;;;;;;;;;5201715;28;20026;-70
2022/06/12 08:21:56;;;;;;;12.93;4.35;;;;;;;;;;5195394;28;20041;-70
2022/06/12 08:24:27;;;;;;;15.45;4.85;;;;;;;;;;5206940;28;20014;-70
2022/06/12 08:26:58;;;;;;;14.10;4.20;;;;;;;;;;5208952;28;20006;-70
2022/06/12 08:29:30;;;;;;;14.77;4.93;;;;;;;;;;5199994;28;20019;-70
2022/06/12 08:32:06;;;;;;;12.38;4.22;;;;;;;;;;5206014;28;20029;-69
2022/06/12 08:34:39;;;;;;;18.80;4.55;;;;;;;;;;5209142;28;20018;-69
2022/06/12 08:37:12;;;;;;;14.93;4.95;;;;;;;;;;5207895;28;20365;-70
2022/06/12 08:39:43;;;;;;;16.48;5.03;;;;;;;;;;5207159;28;20079;-69
2022/06/12 08:42:18;;;;;;;17.98;6.15;;;;;;;;;;5208137;28;20030;-70
2022/06/12 08:45:06;;;;;;;13.45;4.78;;;;;;;;;;5209440;28;20021;-69
2022/06/12 08:47:53;;;;;;;14.63;4.47;;;;;;;;;;5207877;28;20025;-69
2022/06/12 08:50:42;;;;;;;14.52;4.25;;;;;;;;;;5208613;28;20022;-71
2022/06/12 08:53:17;;;;;;;16.20;5.07;;;;;;;;;;5207329;28;20484;-69
2022/06/12 08:55:50;;;;;;;14.18;4.68;;;;;;;;;;5208355;28;20029;-69
2022/06/12 08:58:27;;;;;;;14.70;4.72;;;;;;;;;;5207838;28;20018;-70
2022/06/12 09:00:59;;;;;;;12.68;4.93;;;;;;;;;;5205315;28;20151;-70
2022/06/12 09:03:32;;;;;;;13.02;4.25;;;;;;;;;;5209312;28;20037;-70
2022/06/12 09:06:09;;;;;;;16.67;4.68;;;;;;;;;;5206157;28;20022;-70
2022/06/12 09:08:47;;;;;;;11.07;3.90;;;;;;;;;;5208193;28;20053;-70
2022/06/12 09:11:18;;;;;;;11.75;4.07;;;;;;;;;;5208629;28;20072;-69
2022/06/12 09:13:58;;;;;;;14.77;5.10;;;;;;;;;;5203479;28;20034;-69
2022/06/12 09:16:40;;;;;;;14.13;4.20;;;;;;;;;;5220530;28;20025;-69
2022/06/12 09:19:19;;;;;;;11.57;3.72;;;;;;;;;;5212745;28;20037;-69
2022/06/12 09:22:02;;;;;;;11.38;3.40;;;;;;;;;;5212919;28;20034;-71
2022/06/12 09:24:54;;;;;;;10.82;3.47;;;;;;;;;;5208814;28;20480;-70
2022/06/12 09:27:28;;;;;;;11.07;3.42;;;;;;;;;;5191956;28;20027;-70
2022/06/12 09:30:02;;;;;;;9.77;3.67;;;;;;;;;;5192350;28;20378;-71
2022/06/12 09:32:43;;;;;;;12.48;3.90;;;;;;;;;;5206682;28;20018;-70
2022/06/12 09:35:14;;;;;;;10.70;4.53;;;;;;;;;;5195094;28;20360;-70
2022/06/12 09:41:03;;;;;;;12.90;3.42;;;;;;;;;;5197018;28;20030;-70
2022/06/12 09:43:40;;;;;;;9.50;4.10;;;;;;;;;;5196482;28;20108;-70
2022/06/12 09:46:25;;;;;;;14.40;4.78;;;;;;;;;;5193230;28;20371;-70
2022/06/12 09:48:59;;;;;;;8.38;3.72;;;;;;;;;;5192681;28;20031;-70
2022/06/12 09:51:33;;;;;;;12.65;4.15;;;;;;;;;;5194492;28;20026;-70
2022/06/12 09:54:07;;;;;;;12.35;4.40;;;;;;;;;;5193613;28;20117;-71
2022/06/12 09:56:44;;;;;;;17.10;4.28;;;;;;;;;;5203722;28;20101;-71
2022/06/12 09:59:22;;;;;;;12.80;3.95;;;;;;;;;;5203463;28;20037;-71
2022/06/12 10:01:55;;;;;;;13.43;4.18;;;;;;;;;;5209100;28;20030;-71
2022/06/12 10:04:30;;;;;;;10.68;3.88;;;;;;;;;;5212603;28;20088;-71
2022/06/12 10:07:07;;;;;;;10.73;4.28;;;;;;;;;;5203489;28;20010;-71
2022/06/12 10:09:43;;;;;;;11.57;3.25;;;;;;;;;;5208175;28;20152;-71
2022/06/12 10:12:18;;;;;;;11.60;4.22;;;;;;;;;;5208355;28;20065;-71
2022/06/12 10:14:52;;;;;;;12.63;4.10;;;;;;;;;;5209476;28;20018;-72
2022/06/12 10:17:30;;;;;;;9.30;3.58;;;;;;;;;;5193697;28;20030;-73
2022/06/12 10:20:02;;;;;;;10.80;3.70;;;;;;;;;;5196672;28;20221;-70
2022/06/12 10:22:43;;;;;;;12.20;3.30;;;;;;;;;;5210912;28;20054;-70
2022/06/12 10:25:17;;;;;;;11.30;4.50;;;;;;;;;;5209350;28;20695;-72
2022/06/12 10:27:53;;;;;;;11.38;3.83;;;;;;;;;;5193297;28;20353;-71
2022/06/12 10:30:29;;;;;;;12.65;4.13;;;;;;;;;;5193365;28;20025;-73
2022/06/12 10:33:13;;;;;;;12.48;4.10;;;;;;;;;;5196047;28;20033;-71
2022/06/12 10:35:48;;;;;;;11.75;4.13;;;;;;;;;;5208533;28;20010;-70
2022/06/12 10:38:21;;;;;;;12.73;4.20;;;;;;;;;;5204638;28;20025;-71
2022/06/12 10:40:55;;;;;;;12.02;4.75;;;;;;;;;;5197193;28;20121;-72
2022/06/12 10:43:35;;;;;;;12.38;4.28;;;;;;;;;;5200038;28;20927;-74
2022/06/12 10:46:16;;;;;;;10.32;3.10;;;;;;;;;;5200423;28;20089;-71
2022/06/12 10:48:58;;;;;;;10.27;3.53;;;;;;;;;;5205639;28;20026;-71
2022/06/12 10:51:29;;;;;;;12.35;4.55;;;;;;;;;;5198551;28;20040;-70
2022/06/12 10:54:08;;;;;;;11.48;3.22;;;;;;;;;;5193701;28;20042;-70
2022/06/12 10:56:39;;;;;;;11.98;3.30;;;;;;;;;;5199805;28;20277;-71
2022/06/12 10:59:13;;;;;;;16.42;3.42;;;;;;;;;;5210588;28;20018;-70
2022/06/12 11:01:56;;;;;;;11.57;3.22;;;;;;;;;;5211212;28;20300;-70
2022/06/12 11:04:46;;;;;;;8.93;3.35;;;;;;;;;;5201369;28;20022;-72
2022/06/12 11:07:36;;;;;;;9.95;3.17;;;;;;;;;;5200659;28;20010;-77
2022/06/12 11:10:26;;;;;;;12.48;3.60;;;;;;;;;;5196798;28;20045;-72
2022/06/12 11:13:03;;;;;;;9.32;2.97;;;;;;;;;;5209253;28;20025;-73
2022/06/12 11:15:38;;;;;;;10.15;3.60;;;;;;;;;;5200615;28;20031;-73
2022/06/12 11:18:19;;;;;;;9.05;2.75;;;;;;;;;;5200342;28;20145;-73
2022/06/12 11:20:56;;;;;;;14.25;3.75;;;;;;;;;;5189870;28;20419;-74
2022/06/12 11:23:33;;;;;;;9.98;3.28;;;;;;;;;;5205664;28;20054;-73
2022/06/12 11:26:24;;;;;;;9.98;3.03;;;;;;;;;;5209823;28;20071;-75
2022/06/12 11:29:04;;;;;;;9.63;2.92;;;;;;;;;;5209192;28;20125;-73
2022/06/12 11:31:38;;;;;;;9.20;2.58;;;;;;;;;;5209212;28;20025;-75
2022/06/12 11:34:18;;;;;;;10.52;3.13;;;;;;;;;;5210502;28;20487;-75
2022/06/12 11:37:07;;;;;;;9.65;2.63;;;;;;;;;;5197397;28;20126;-74
2022/06/12 11:39:57;;;;;;;24.63;3.83;;;;;;;;;;5207113;28;20029;-74
2022/06/12 11:42:43;;;;;;;11.38;2.88;;;;;;;;;;5208835;28;20025;-75
2022/06/12 11:45:18;;;;;;;11.73;2.95;;;;;;;;;;5202920;28;20448;-73
2022/06/12 11:48:02;;;;;;;8.70;3.15;;;;;;;;;;5207405;28;20523;-75
2022/06/12 11:50:33;;;;;;;;;;;;;;;;;;5200606;28;20034;-76
2022/06/12 11:53:04;;;;;;;9.27;3.00;;;;;;;;;;5208504;28;19907;-75
2022/06/12 11:55:41;;;;;;;8.75;2.50;;;;;;;;;;5205701;28;20391;-74
2022/06/12 11:58:12;;;;;;;9.02;2.95;;;;;;;;;;5191614;28;20625;-76
2022/06/12 12:00:59;;;;;;;9.90;3.42;;;;;;;;;;5210337;28;20030;-76
2022/06/12 12:03:51;;;;;;;7.78;2.85;;;;;;;;;;5190622;28;20274;-76
2022/06/12 12:06:28;;;;;;;8.38;2.30;;;;;;;;;;5190465;28;20088;-75
2022/06/12 12:08:59;;;;;;;7.30;2.85;;;;;;;;;;5202585;28;20171;-75
2022/06/12 12:11:32;;;;;;;10.96;3.06;;;;;;;;;;5188934;28;20018;-75
2022/06/12 12:14:05;;;;;;;5.95;2.17;;;;;;;;;;5190793;28;20077;-75
2022/06/12 12:16:36;;;;;;;9.48;2.88;;;;;;;;;;5196815;28;20010;-75
2022/06/12 12:19:10;;;;;;;8.40;2.40;;;;;;;;;;5191113;28;20018;-75
2022/06/12 12:21:48;;;;;;;10.18;3.20;;;;;;;;;;5189957;28;20026;-76
2022/06/12 12:24:26;;;;;;;11.02;3.28;;;;;;;;;;5190853;28;20073;-75
2022/06/12 12:26:59;;;;;;;15.05;4.40;;;;;;;;;;5193861;28;20025;-75
2022/06/12 12:29:32;;;;;;;10.18;3.10;;;;;;;;;;5193637;28;20061;-76
2022/06/12 12:32:04;;;;;;;9.57;2.47;;;;;;;;;;5193592;28;20022;-73
2022/06/12 12:34:36;;;;;;;12.65;3.60;;;;;;;;;;5202190;28;20076;-75
2022/06/12 12:42:59;;;;;;;18.55;3.53;;;;;;;;;;5209079;28;20473;-75
2022/06/12 12:45:32;;;;;;;10.20;2.80;;;;;;;;;;5193688;28;20465;-74
2022/06/12 12:48:05;;;;;;;12.02;2.65;;;;;;;;;;5194613;28;20017;-77
2022/06/12 12:50:49;;;;;;;15.13;3.53;;;;;;;;;;5209329;28;20107;-75
2022/06/12 12:53:30;;;;;;;10.32;3.13;;;;;;;;;;5212411;28;20113;-76
2022/06/12 12:56:04;;;;;;;10.50;2.78;;;;;;;;;;5204851;28;20025;-76
2022/06/12 12:58:38;;;;;;;9.00;3.28;;;;;;;;;;5194850;28;20038;-75
2022/06/12 13:01:19;;;;;;;8.38;2.53;;;;;;;;;;5195279;28;20540;-74
2022/06/12 13:04:10;;;;;;;11.00;2.70;;;;;;;;;;5205565;28;20103;-76
2022/06/12 13:07:00;;;;;;;9.90;2.17;;;;;;;;;;5208696;28;20092;-74
2022/06/12 13:09:50;;;;;;;9.90;2.97;;;;;;;;;;5197361;28;20047;-77
2022/06/12 13:12:57;;;;;;;6.72;2.17;;;;;;;;;;5204642;28;20034;-75
2022/06/12 13:15:47;;;;;;;9.77;2.72;;;;;;;;;;5167609;28;20026;-76
2022/06/12 13:18:18;;;;;;;7.00;2.35;;;;;;;;;;5194246;28;20045;-73
2022/06/12 13:21:00;;;;;;;7.14;2.60;;;;;;;;;;5196943;28;20019;-74
2022/06/12 13:23:50;;;;;;;12.55;2.63;;;;;;;;;;5197286;28;20480;-73
2022/06/12 13:26:24;;;;;;;9.60;2.53;;;;;;;;;;5193691;28;20021;-72
2022/06/12 13:28:57;;;;;;;10.30;2.67;;;;;;;;;;5194042;28;20381;-71
2022/06/12 13:31:33;;;;;;;9.50;2.72;;;;;;;;;;5196731;28;20380;-73
2022/06/12 13:34:04;;;;;;;9.82;2.83;;;;;;;;;;5195102;28;20705;-73
2022/06/12 13:36:38;;;;;;;8.20;2.60;;;;;;;;;;5192834;28;20085;-71
2022/06/12 13:39:20;;;;;;;5.95;2.42;;;;;;;;;;5191881;28;20076;-84
2022/06/12 13:42:01;;;;;;;6.35;1.92;;;;;;;;;;5193070;28;20094;-75
2022/06/12 13:44:32;;;;;;;7.45;2.13;;;;;;;;;;5194712;28;20026;-75
2022/06/12 13:47:18;;;;;;;7.28;2.30;;;;;;;;;;5195967;28;20018;-76
2022/06/12 13:50:08;;;;;;;5.75;1.90;;;;;;;;;;5195995;28;20075;-79
2022/06/12 13:52:56;;;;;;;7.85;1.90;;;;;;;;;;5196007;28;20116;-76
2022/06/12 13:55:32;;;;;;;5.15;1.60;;;;;;;;;;5211563;28;20148;-75
2022/06/12 13:58:08;;;;;;;6.32;1.58;;;;;;;;;;5198000;28;20041;-75
2022/06/12 14:00:42;;;;;;;5.55;1.90;;;;;;;;;;5205403;28;20053;-75
2022/06/12 14:03:21;;;;;;;5.88;2.05;;;;;;;;;;5191398;28;20076;-75
2022/06/12 14:06:00;;;;;;;5.72;2.10;;;;;;;;;;5185341;28;20489;-76
2022/06/12 14:08:32;;;;;;;7.28;2.10;;;;;;;;;;5207637;28;20071;-76
2022/06/12 14:11:04;;;;;;;5.53;1.63;;;;;;;;;;5206459;28;20029;-77
2022/06/12 14:13:45;;;;;;;5.85;1.90;;;;;;;;;;5207111;28;20064;-77
2022/06/12 14:16:18;;;;;;;6.38;2.05;;;;;;;;;;5207973;28;20021;-76
2022/06/12 14:19:04;;;;;;;7.80;2.03;;;;;;;;;;5207482;28;20026;-77
2022/06/12 14:21:39;;;;;;;8.43;2.10;;;;;;;;;;5209701;28;20061;-76
2022/06/12 14:24:14;;;;;;;6.38;1.88;;;;;;;;;;5206353;28;20095;-76
2022/06/12 14:26:46;;;;;;;7.07;2.10;;;;;;;;;;5221004;28;20037;-76
2022/06/12 14:29:29;;;;;;;4.07;1.73;;;;;;;;;;5213010;28;20428;-77
2022/06/12 14:32:19;;;;;;;6.38;2.00;;;;;;;;;;5210630;28;20040;-77
2022/06/12 14:35:05;;;;;;;7.22;2.08;;;;;;;;;;5207127;28;20014;-75
2022/06/12 14:37:41;;;;;;;7.43;2.20;;;;;;;;;;5213732;28;20499;-73
2022/06/12 14:40:29;;;;;;;4.93;1.42;;;;;;;;;;5203421;28;20505;-74
2022/06/12 14:43:10;;;;;;;8.02;2.35;;;;;;;;;;5202560;28;20568;-74
2022/06/12 14:45:46;;;;;;;6.03;2.17;;;;;;;;;;5199757;28;20033;-75
2022/06/12 14:48:22;;;;;;;4.43;1.60;;;;;;;;;;5201781;28;20026;-75
2022/06/12 14:50:54;;;;;;;7.63;1.75;;;;;;;;;;5206061;28;20644;-77
2022/06/12 14:53:25;;;;;;;9.32;2.50;;;;;;;;;;5200840;28;20006;-75
2022/06/12 14:55:58;;;;;;;6.78;2.22;;;;;;;;;;5202994;28;20886;-76
2022/06/12 14:58:31;;;;;;;7.20;2.33;;;;;;;;;;5199545;28;20037;-75
2022/06/12 15:01:04;;;;;;;7.40;1.97;;;;;;;;;;5199252;28;20408;-75
2022/06/12 15:03:35;;;;;;;5.07;1.90;;;;;;;;;;5197424;28;20871;-75
2022/06/12 15:06:07;;;;;;;5.45;1.80;;;;;;;;;;5201494;28;20017;-75
2022/06/12 15:08:38;;;;;;;5.68;2.25;;;;;;;;;;5195912;28;20519;-75
2022/06/12 15:11:17;;;;;;;11.80;2.35;;;;;;;;;;5195475;28;20021;-76
2022/06/12 15:13:53;;;;;;;8.02;1.83;;;;;;;;;;5196294;28;20097;-75
2022/06/12 15:16:25;;;;;;;6.70;2.38;;;;;;;;;;5194561;28;20049;-75
2022/06/12 15:18:57;;;;;;;6.03;2.35;;;;;;;;;;5205166;28;20046;-74
2022/06/12 15:21:30;;;;;;;7.07;1.77;;;;;;;;;;5195344;28;20122;-73
2022/06/12 15:24:02;;;;;;;7.40;2.03;;;;;;;;;;5199125;28;20037;-74
2022/06/12 15:32:18;;;;;;;5.63;1.83;;;;;;;;;;5205579;28;20037;-79
2022/06/12 15:34:50;;;;;;;7.60;1.70;;;;;;;;;;5203473;28;20030;-79
2022/06/12 15:37:21;;;;;;;4.93;1.60;;;;;;;;;;5205945;28;20125;-78
2022/06/12 15:39:53;;;;;;;7.78;1.90;;;;;;;;;;5221003;28;20034;-81
2022/06/12 15:42:25;;;;;;;7.55;2.40;;;;;;;;;;5205623;28;20037;-77
2022/06/12 15:44:56;;;;;;;4.93;2.00;;;;;;;;;;5201533;28;20955;-76
2022/06/12 15:47:27;;;;;;;6.10;1.70;;;;;;;;;;5207724;28;20006;-79
2022/06/12 15:49:58;;;;;;;3.65;1.58;;;;;;;;;;5206604;28;20018;-77